Time;durP1;ratioP1;P1;durP2;ratioP2;P2;SDS_P1;SDS_P2;PMS_P1;PMS_P2;Temp;Humidity;BMP_temperature;BMP_pressure;BME280_temperature;BME280_humidity;BME280_pressure;Samples;Min_cycle;Max_cycle;Signal;HPM_P1;HPM_P2
2021/06/29 00:15:30;;;;;;;16.77;10.23;;;21.60;97.30;;;;;;6215504;23;20946;-95
2021/06/29 00:18:09;;;;;;;14.43;10.63;;;21.60;97.30;;;;;;6195536;23;20391;-92
2021/06/29 00:21:10;;;;;;;13.80;10.57;;;21.50;97.30;;;;;;6218123;23;20437;-92
2021/06/29 00:27:00;;;;;;;15.67;11.70;;;21.40;97.30;;;;;;6160759;23;20380;-92
2021/06/29 00:30:10;;;;;;;14.10;11.07;;;21.40;97.30;;;;;;6140556;23;20444;-93
2021/06/29 00:37:09;;;;;;;13.60;10.37;;;21.30;97.30;;;;;;6192585;23;20377;-93
2021/06/29 00:47:30;;;;;;;16.67;11.10;;;21.30;97.30;;;;;;6191182;23;20444;-93
2021/06/29 00:49:59;;;;;;;14.90;11.17;;;21.30;97.30;;;;;;6161077;23;20484;-93
2021/06/29 00:52:50;;;;;;;15.10;12.17;;;21.30;97.30;;;;;;6161777;23;20373;-94
2021/06/29 00:55:31;;;;;;;14.20;11.47;;;21.20;97.30;;;;;;6152810;23;20395;-93
2021/06/29 00:58:00;;;;;;;15.70;12.50;;;21.20;97.30;;;;;;6164388;23;20392;-93
2021/06/29 01:00:51;;;;;;;14.93;12.17;;;21.10;97.30;;;;;;6161649;23;20419;-92
2021/06/29 01:03:29;;;;;;;12.87;10.80;;;21.10;97.30;;;;;;6160026;23;20392;-92
2021/06/29 01:06:10;;;;;;;16.90;11.60;;;21.10;97.30;;;;;;6161921;23;20419;-92
2021/06/29 01:11:18;;;;;;;15.50;12.13;;;21.00;97.30;;;;;;6196346;22;20443;-93
2021/06/29 01:13:50;;;;;;;13.83;11.50;;;21.10;97.30;;;;;;6168793;23;20399;-92
2021/06/29 01:16:39;;;;;;;15.03;12.23;;;21.00;97.30;;;;;;6194926;23;20379;-93
2021/06/29 01:22:11;;;;;;;16.27;11.90;;;21.00;97.30;;;;;;6227889;23;20478;-93
2021/06/29 01:24:42;;;;;;;15.30;12.30;;;21.10;97.30;;;;;;6200075;23;20406;-93
2021/06/29 01:32:40;;;;;;;19.53;14.73;;;21.00;97.30;;;;;;6191467;23;20460;-92
2021/06/29 01:35:40;;;;;;;16.07;12.90;;;21.00;97.30;;;;;;6167458;23;20384;-92
2021/06/29 01:38:31;;;;;;;19.80;13.40;;;21.00;97.30;;;;;;6100437;23;20766;-93
2021/06/29 01:40:59;;;;;;;19.17;13.63;;;21.10;97.30;;;;;;6078189;23;20462;-93
2021/06/29 01:46:43;;;;;;;19.50;12.40;;;21.20;97.30;;;;;;6104445;23;20426;-93
2021/06/29 01:51:59;;;;;;;16.33;11.67;;;21.30;97.30;;;;;;6226883;23;20411;-93
2021/06/29 01:54:31;;;;;;;14.60;11.10;;;21.40;97.30;;;;;;6198384;23;20458;-93
2021/06/29 01:56:59;;;;;;;12.73;9.67;;;21.40;97.30;;;;;;6197535;23;20375;-93
2021/06/29 01:59:30;;;;;;;20.03;10.83;;;21.50;97.30;;;;;;6199652;23;20423;-93
2021/06/29 02:01:59;;;;;;;12.40;9.60;;;21.50;97.30;;;;;;6202230;23;20429;-93
2021/06/29 02:04:31;;;;;;;15.60;9.93;;;21.50;97.30;;;;;;6204649;23;20383;-95
2021/06/29 02:06:59;;;;;;;12.43;8.90;;;21.50;97.30;;;;;;6200622;23;20425;-94
2021/06/29 02:09:40;;;;;;;17.93;8.23;;;21.50;97.30;;;;;;6193879;23;20459;-93
2021/06/29 02:12:09;;;;;;;11.70;8.70;;;21.40;97.30;;;;;;6170549;23;20394;-93
2021/06/29 02:14:38;;;;;;;12.63;6.83;;;21.40;97.30;;;;;;6171020;23;20403;-92
2021/06/29 02:17:09;;;;;;;10.63;7.13;;;21.40;97.30;;;;;;6195884;23;20419;-93
2021/06/29 02:19:50;;;;;;;9.63;7.00;;;21.40;97.30;;;;;;6167669;23;20813;-93
2021/06/29 02:25:21;;;;;;;10.63;6.27;;;21.30;97.30;;;;;;6195513;23;20459;-93
2021/06/29 02:28:39;;;;;;;8.00;5.90;;;21.30;97.30;;;;;;6170163;23;20379;-93
2021/06/29 02:31:13;;;;;;;7.10;5.63;;;21.30;97.30;;;;;;6135929;23;20482;-93
2021/06/29 02:33:51;;;;;;;13.47;5.50;;;21.30;97.30;;;;;;6168706;23;20415;-93
2021/06/29 02:36:19;;;;;;;7.00;5.40;;;21.30;97.30;;;;;;6166697;23;20455;-93
2021/06/29 02:42:20;;;;;;;6.80;5.40;;;21.30;97.30;;;;;;6196878;23;20469;-93
2021/06/29 02:44:49;;;;;;;7.70;5.10;;;21.20;97.30;;;;;;6135500;23;20870;-93
2021/06/29 02:47:20;;;;;;;6.83;4.37;;;21.20;97.30;;;;;;6165704;23;20509;-94
2021/06/29 02:52:32;;;;;;;7.83;4.80;;;21.10;97.30;;;;;;6222627;23;20466;-92
2021/06/29 02:55:07;;;;;;;4.87;3.37;;;21.10;97.30;;;;;;6194690;23;20378;-93
2021/06/29 02:57:40;;;;;;;4.27;3.10;;;21.10;97.30;;;;;;6197273;23;20461;-93
2021/06/29 03:00:50;;;;;;;3.37;2.70;;;21.00;97.30;;;;;;6179877;23;20534;-92
2021/06/29 03:03:21;;;;;;;3.27;3.00;;;21.00;97.30;;;;;;6191509;23;20394;-93
2021/06/29 03:05:49;;;;;;;5.20;3.27;;;21.00;97.30;;;;;;6165136;23;20836;-93
2021/06/29 03:08:18;;;;;;;6.50;3.53;;;21.00;97.30;;;;;;6165579;23;20388;-92
2021/06/29 03:10:50;;;;;;;5.43;2.90;;;21.00;97.30;;;;;;6189893;23;20427;-92
2021/06/29 03:13:18;;;;;;;5.53;2.37;;;21.00;97.30;;;;;;6166104;23;20442;-92
2021/06/29 03:15:49;;;;;;;3.43;2.17;;;21.00;97.30;;;;;;6165665;23;20391;-92
2021/06/29 03:18:23;;;;;;;2.23;2.00;;;20.90;97.30;;;;;;6193167;23;20407;-93
2021/06/29 03:21:00;;;;;;;1.87;1.80;;;20.90;97.30;;;;;;6168071;23;20520;-92
2021/06/29 03:23:29;;;;;;;5.37;2.37;;;20.90;97.30;;;;;;6165547;23;20718;-92
2021/06/29 03:26:00;;;;;;;4.43;2.30;;;20.90;97.30;;;;;;6165638;23;20383;-93
2021/06/29 03:28:29;;;;;;;7.60;2.63;;;20.80;97.30;;;;;;6164399;23;20375;-92
2021/06/29 03:31:01;;;;;;;2.53;2.00;;;20.80;97.30;;;;;;6190517;22;20459;-92
2021/06/29 03:33:29;;;;;;;3.90;2.10;;;20.80;97.30;;;;;;6166746;23;20428;-95
2021/06/29 03:36:20;;;;;;;4.73;2.30;;;20.70;97.30;;;;;;6164003;23;20396;-92
2021/06/29 03:38:49;;;;;;;2.67;1.90;;;20.70;97.30;;;;;;6160840;23;20480;-94
2021/06/29 03:41:20;;;;;;;3.77;2.00;;;20.70;97.30;;;;;;6187971;23;20455;-91
2021/06/29 03:43:49;;;;;;;3.90;2.10;;;20.70;97.30;;;;;;6162881;23;20900;-90
2021/06/29 03:46:20;;;;;;;5.90;2.37;;;20.70;97.30;;;;;;6161258;23;20395;-91
2021/06/29 03:48:49;;;;;;;2.13;1.90;;;20.70;97.30;;;;;;6161133;23;20427;-92
2021/06/29 03:51:20;;;;;;;3.60;2.27;;;20.60;97.30;;;;;;6161691;23;20455;-92
2021/06/29 03:57:40;;;;;;;5.20;2.13;;;20.60;97.30;;;;;;6188267;23;20858;-92
2021/06/29 04:04:49;;;;;;;3.20;2.07;;;20.60;97.30;;;;;;6180109;23;20419;-91
2021/06/29 04:11:59;;;;;;;;;;;;;;;;;;;;;
2021/06/29 04:14:31;;;;;;;3.43;2.50;;;20.60;97.30;;;;;;6189827;23;20399;-91
2021/06/29 04:16:59;;;;;;;2.93;1.90;;;20.70;97.30;;;;;;6188589;23;20416;-91
2021/06/29 04:19:48;;;;;;;4.13;2.43;;;20.70;97.30;;;;;;6180750;23;20463;-92
2021/06/29 04:22:19;;;;;;;3.07;2.17;;;20.70;97.30;;;;;;6143888;23;20428;-92
2021/06/29 04:25:20;;;;;;;3.50;2.20;;;20.80;97.30;;;;;;6159422;23;20385;-92
2021/06/29 04:28:10;;;;;;;2.87;2.20;;;20.70;97.30;;;;;;6160291;23;20905;-93
2021/06/29 04:30:50;;;;;;;8.53;2.37;;;20.80;97.30;;;;;;6158691;23;20413;-92
2021/06/29 04:33:19;;;;;;;3.40;2.13;;;20.80;97.30;;;;;;6158488;23;20388;-92
2021/06/29 04:35:51;;;;;;;3.60;2.10;;;20.80;97.30;;;;;;6158830;23;20392;-91
2021/06/29 04:38:19;;;;;;;2.60;2.10;;;20.80;97.30;;;;;;6157076;23;20456;-91
2021/06/29 04:41:20;;;;;;;4.30;2.70;;;20.70;97.30;;;;;;6154476;23;20496;-92
2021/06/29 04:44:21;;;;;;;6.60;2.40;;;20.70;97.30;;;;;;6145925;23;20857;-93
2021/06/29 04:46:50;;;;;;;3.90;2.40;;;20.70;97.30;;;;;;6072363;23;20429;-93
2021/06/29 04:49:31;;;;;;;3.37;2.10;;;20.70;97.30;;;;;;6071685;23;20418;-92
2021/06/29 04:52:09;;;;;;;4.73;2.53;;;20.70;97.30;;;;;;6115051;23;20400;-92
2021/06/29 04:54:40;;;;;;;6.80;2.67;;;20.60;97.30;;;;;;6128051;23;20374;-92
2021/06/29 04:57:09;;;;;;;3.40;2.47;;;20.60;97.30;;;;;;6127174;23;20464;-93
2021/06/29 04:59:41;;;;;;;4.63;2.63;;;20.60;97.30;;;;;;6140135;23;20535;-93
2021/06/29 05:08:57;;;;;;;5.90;2.47;;;20.60;97.30;;;;;;6076653;23;20935;-81
2021/06/29 05:11:22;;;;;;;4.33;2.27;;;20.60;97.30;;;;;;6190164;23;20505;-80
2021/06/29 05:13:48;;;;;;;3.23;2.50;;;20.60;97.30;;;;;;6191795;23;20166;-82
2021/06/29 05:16:13;;;;;;;3.63;2.43;;;20.70;97.30;;;;;;6192773;23;20235;-82
2021/06/29 05:18:39;;;;;;;4.33;2.63;;;20.70;97.30;;;;;;6192434;23;20166;-82
2021/06/29 05:21:05;;;;;;;4.07;2.40;;;20.60;97.30;;;;;;6191438;23;20198;-81
2021/06/29 05:23:30;;;;;;;5.27;2.23;;;20.60;97.30;;;;;;6193815;23;20671;-82
2021/06/29 05:25:56;;;;;;;3.50;2.50;;;20.50;97.30;;;;;;6192571;23;20162;-82
2021/06/29 05:28:23;;;;;;;4.73;2.70;;;20.50;97.30;;;;;;6219249;23;20148;-82
2021/06/29 05:30:49;;;;;;;5.07;2.70;;;20.50;97.30;;;;;;6193712;23;20190;-82
2021/06/29 05:33:20;;;;;;;4.23;2.50;;;20.50;97.30;;;;;;6194151;23;20449;-81
2021/06/29 05:35:46;;;;;;;3.70;2.90;;;20.50;97.30;;;;;;6192946;23;20443;-82
2021/06/29 05:38:12;;;;;;;5.00;2.50;;;20.50;97.30;;;;;;6192437;23;20375;-82
2021/06/29 05:40:37;;;;;;;6.63;3.60;;;20.50;97.30;;;;;;6193309;23;20226;-82
2021/06/29 05:43:03;;;;;;;4.97;2.70;;;20.50;97.30;;;;;;6192098;23;20184;-81
2021/06/29 05:45:29;;;;;;;8.57;2.63;;;20.60;97.30;;;;;;6220221;23;20219;-82
2021/06/29 05:47:58;;;;;;;5.43;2.80;;;20.60;97.30;;;;;;6192026;23;20152;-81
2021/06/29 05:50:24;;;;;;;4.20;2.80;;;20.60;97.30;;;;;;6192824;23;20481;-81
2021/06/29 05:52:50;;;;;;;4.90;2.73;;;20.70;97.30;;;;;;6220523;23;20390;-81
2021/06/29 05:55:15;;;;;;;3.40;2.63;;;20.70;97.30;;;;;;6192411;23;20387;-82
2021/06/29 05:57:42;;;;;;;4.00;3.00;;;20.70;97.30;;;;;;6192421;23;20213;-82
2021/06/29 06:00:13;;;;;;;4.93;2.57;;;20.80;97.30;;;;;;6192537;23;20509;-81
2021/06/29 06:02:39;;;;;;;5.47;2.80;;;20.80;97.30;;;;;;6192434;23;20423;-82
2021/06/29 06:05:09;;;;;;;4.00;2.67;;;20.80;97.30;;;;;;6191870;23;20474;-81
2021/06/29 06:07:39;;;;;;;4.50;3.13;;;20.90;97.30;;;;;;6191173;23;20399;-82
2021/06/29 06:10:06;;;;;;;6.07;2.30;;;20.90;97.30;;;;;;6192666;23;20430;-82
2021/06/29 06:12:32;;;;;;;3.60;2.70;;;21.00;97.30;;;;;;6192550;23;20415;-82
2021/06/29 06:14:58;;;;;;;11.13;2.90;;;21.00;97.30;;;;;;6192617;23;20414;-81
2021/06/29 06:17:26;;;;;;;6.30;2.57;;;21.10;97.30;;;;;;6191820;23;20832;-81
2021/06/29 06:19:53;;;;;;;4.60;2.90;;;21.10;97.30;;;;;;6191947;23;20167;-80
2021/06/29 06:22:18;;;;;;;4.77;2.80;;;21.10;97.30;;;;;;6192812;23;20950;-80
2021/06/29 06:24:44;;;;;;;3.30;2.67;;;21.20;97.30;;;;;;6191894;23;20387;-81
2021/06/29 06:27:13;;;;;;;5.07;3.00;;;21.20;97.30;;;;;;6218571;23;20480;-81
2021/06/29 06:29:39;;;;;;;2.73;2.40;;;21.20;97.30;;;;;;6191622;23;20164;-81
2021/06/29 06:32:05;;;;;;;5.87;2.70;;;21.30;97.30;;;;;;6192726;23;20499;-80
2021/06/29 06:34:30;;;;;;;7.17;2.60;;;21.30;97.30;;;;;;6192347;23;20192;-81
2021/06/29 06:36:56;;;;;;;4.13;2.70;;;21.30;97.30;;;;;;6192342;23;20167;-81
2021/06/29 06:39:21;;;;;;;8.23;2.90;;;21.30;97.30;;;;;;6191641;23;20178;-81
2021/06/29 06:41:47;;;;;;;6.37;3.03;;;21.30;97.30;;;;;;6192627;23;20186;-81
2021/06/29 06:44:12;;;;;;;3.73;3.10;;;21.30;97.30;;;;;;6219650;23;20152;-81
2021/06/29 06:46:38;;;;;;;9.50;3.33;;;21.30;97.30;;;;;;6191542;23;20191;-81
2021/06/29 06:49:04;;;;;;;5.70;3.33;;;21.30;97.30;;;;;;6189734;23;20624;-81
2021/06/29 06:51:29;;;;;;;6.97;3.40;;;21.40;97.30;;;;;;6192656;23;20179;-80
2021/06/29 06:53:55;;;;;;;5.93;2.80;;;21.30;97.30;;;;;;6191256;23;20183;-81
2021/06/29 06:56:21;;;;;;;4.10;2.83;;;21.40;97.30;;;;;;6191536;23;20167;-81
2021/06/29 06:58:46;;;;;;;7.97;3.50;;;21.50;97.30;;;;;;6192907;23;20156;-81
2021/06/29 07:01:15;;;;;;;3.30;2.60;;;21.50;97.30;;;;;;6195021;23;20207;-81
2021/06/29 07:03:41;;;;;;;3.80;2.90;;;21.50;97.30;;;;;;6194049;23;20152;-82
2021/06/29 07:06:07;;;;;;;5.40;2.77;;;21.50;97.30;;;;;;6194803;23;20417;-82
2021/06/29 07:08:33;;;;;;;8.80;3.20;;;21.50;97.30;;;;;;6193085;23;20387;-81
2021/06/29 07:10:59;;;;;;;5.53;2.67;;;21.50;97.30;;;;;;6192324;23;20442;-82
2021/06/29 07:13:25;;;;;;;5.77;3.47;;;21.50;97.30;;;;;;6191617;23;20383;-81
2021/06/29 07:15:51;;;;;;;4.70;3.13;;;21.60;97.30;;;;;;6191955;23;20457;-82
2021/06/29 07:18:18;;;;;;;3.90;3.20;;;21.60;97.30;;;;;;6194968;23;20147;-82
2021/06/29 07:20:44;;;;;;;5.57;3.00;;;21.60;97.30;;;;;;6194187;23;20203;-81
2021/06/29 07:23:11;;;;;;;5.97;3.20;;;21.60;97.30;;;;;;6189857;23;20518;-80
2021/06/29 07:25:37;;;;;;;4.60;3.10;;;21.60;97.30;;;;;;6189671;23;20584;-81
2021/06/29 07:28:02;;;;;;;4.20;3.50;;;21.60;97.30;;;;;;6189140;23;20383;-81
2021/06/29 07:30:28;;;;;;;5.10;3.40;;;21.60;97.30;;;;;;6188482;23;20198;-80
2021/06/29 07:32:55;;;;;;;11.10;3.20;;;21.60;97.30;;;;;;6188981;23;20159;-83
2021/06/29 07:35:22;;;;;;;4.33;3.20;;;21.70;97.30;;;;;;6186255;23;20156;-83
2021/06/29 07:37:48;;;;;;;6.40;3.40;;;21.70;97.30;;;;;;6185864;23;20407;-84
2021/06/29 07:40:13;;;;;;;5.87;3.97;;;21.70;97.30;;;;;;6186905;23;20695;-82
2021/06/29 07:42:39;;;;;;;9.70;3.57;;;21.70;97.30;;;;;;6191588;23;20456;-82
2021/06/29 07:45:06;;;;;;;5.07;2.97;;;21.80;97.30;;;;;;6191750;23;20183;-82
2021/06/29 07:47:32;;;;;;;4.50;3.27;;;22.00;97.30;;;;;;6190240;23;20152;-82
2021/06/29 07:49:58;;;;;;;4.77;3.00;;;22.00;97.30;;;;;;6185725;23;20381;-82
2021/06/29 07:52:24;;;;;;;3.50;3.03;;;22.10;97.30;;;;;;6188238;23;20813;-82
2021/06/29 07:54:50;;;;;;;5.50;3.37;;;22.10;97.30;;;;;;6191157;23;20164;-82
2021/06/29 07:57:15;;;;;;;6.07;3.37;;;22.10;97.30;;;;;;6189248;23;20597;-82
2021/06/29 07:59:41;;;;;;;6.50;2.80;;;22.00;97.30;;;;;;6188414;23;20160;-82
2021/06/29 08:02:07;;;;;;;11.17;3.00;;;22.00;97.30;;;;;;6188397;23;20183;-82
2021/06/29 08:04:33;;;;;;;7.53;3.77;;;22.00;97.30;;;;;;6190191;23;20154;-82
2021/06/29 08:06:58;;;;;;;6.17;3.37;;;22.00;97.30;;;;;;6189383;23;20386;-82
2021/06/29 08:09:24;;;;;;;9.83;3.27;;;22.00;97.30;;;;;;6187646;23;20427;-83
2021/06/29 08:11:50;;;;;;;7.70;3.43;;;22.00;97.30;;;;;;6188382;23;20226;-82
2021/06/29 08:14:16;;;;;;;5.10;3.20;;;22.10;97.30;;;;;;6188710;23;20170;-82
2021/06/29 08:16:44;;;;;;;3.97;3.33;;;22.10;97.30;;;;;;6189416;23;20155;-82
2021/06/29 08:19:09;;;;;;;11.47;3.20;;;22.00;97.30;;;;;;6188519;23;20914;-82
2021/06/29 08:21:35;;;;;;;4.20;3.10;;;22.00;97.30;;;;;;6188835;23;20426;-83
2021/06/29 08:24:01;;;;;;;6.20;3.30;;;22.00;97.30;;;;;;6216825;23;20540;-82
2021/06/29 08:26:26;;;;;;;4.87;3.43;;;22.00;97.30;;;;;;6188858;23;20417;-82
2021/06/29 08:28:52;;;;;;;7.53;3.73;;;22.00;97.30;;;;;;6187174;23;20543;-82
2021/06/29 08:31:21;;;;;;;5.20;3.60;;;22.00;97.30;;;;;;6186710;23;20262;-82
2021/06/29 08:33:47;;;;;;;7.27;3.73;;;22.00;97.30;;;;;;6189222;23;20243;-82
2021/06/29 08:36:13;;;;;;;4.87;3.83;;;22.00;97.30;;;;;;6215932;23;20449;-82
2021/06/29 08:38:38;;;;;;;4.23;3.63;;;22.00;97.30;;;;;;6187642;23;20439;-82
2021/06/29 08:41:04;;;;;;;5.20;3.80;;;22.00;97.30;;;;;;6186908;23;20179;-82
2021/06/29 08:43:30;;;;;;;5.17;3.50;;;22.00;97.30;;;;;;6188241;23;20496;-84
2021/06/29 08:45:56;;;;;;;7.40;3.90;;;22.00;97.30;;;;;;6187724;23;20175;-82
2021/06/29 08:48:22;;;;;;;6.60;3.90;;;22.00;97.30;;;;;;6189445;23;20152;-83
2021/06/29 08:50:47;;;;;;;6.30;4.17;;;22.00;97.30;;;;;;6188759;23;20402;-82
2021/06/29 08:53:13;;;;;;;6.43;3.70;;;22.00;97.30;;;;;;6189035;23;20194;-82
2021/06/29 08:55:48;;;;;;;4.60;3.83;;;22.00;97.30;;;;;;6189628;23;20171;-83
2021/06/29 08:58:23;;;;;;;4.00;3.73;;;21.90;97.30;;;;;;6189093;23;20205;-82
2021/06/29 09:00:50;;;;;;;4.23;3.60;;;21.90;97.30;;;;;;6189508;23;20480;-82
2021/06/29 09:03:15;;;;;;;5.20;3.70;;;21.80;97.30;;;;;;6190471;23;20455;-82
2021/06/29 09:05:52;;;;;;;6.53;4.50;;;21.70;97.30;;;;;;6217744;23;20389;-82
2021/06/29 09:08:20;;;;;;;5.20;3.50;;;21.90;97.30;;;;;;6189702;23;20151;-82
2021/06/29 09:11:08;;;;;;;7.60;3.70;;;21.90;97.30;;;;;;6190738;23;20469;-81
2021/06/29 09:13:34;;;;;;;4.70;3.40;;;21.90;97.30;;;;;;6190930;23;20379;-82
2021/06/29 09:15:59;;;;;;;4.97;3.97;;;21.90;97.30;;;;;;6194631;23;20409;-84
2021/06/29 09:18:27;;;;;;;5.37;3.93;;;22.00;97.30;;;;;;6195665;23;20484;-83
2021/06/29 09:20:54;;;;;;;9.13;4.17;;;22.00;97.30;;;;;;6194087;23;20183;-84
2021/06/29 09:23:31;;;;;;;4.80;3.60;;;22.10;97.30;;;;;;6193902;23;20402;-84
2021/06/29 09:26:09;;;;;;;6.13;4.00;;;22.20;97.30;;;;;;6196349;23;20386;-83
2021/06/29 09:28:58;;;;;;;11.13;4.17;;;22.20;97.30;;;;;;6194756;23;20379;-83
2021/06/29 09:31:27;;;;;;;7.07;3.30;;;22.30;97.30;;;;;;6193283;23;20766;-84
2021/06/29 09:34:05;;;;;;;5.43;3.50;;;22.30;97.30;;;;;;6194703;23;20482;-83
2021/06/29 09:36:34;;;;;;;4.70;3.47;;;22.30;97.30;;;;;;6195248;23;20379;-84
2021/06/29 09:39:06;;;;;;;5.40;3.70;;;22.30;97.30;;;;;;6221988;23;20798;-83
2021/06/29 09:41:34;;;;;;;4.80;3.83;;;22.30;97.30;;;;;;6193391;23;20423;-83
2021/06/29 09:44:06;;;;;;;5.30;4.43;;;22.20;97.30;;;;;;6194764;23;20394;-83
2021/06/29 09:46:31;;;;;;;5.23;3.90;;;22.20;97.30;;;;;;6223110;23;20391;-82
2021/06/29 09:49:00;;;;;;;5.10;3.93;;;22.20;97.30;;;;;;6194734;23;20840;-83
2021/06/29 09:51:29;;;;;;;5.07;4.13;;;22.20;97.30;;;;;;6195872;23;20176;-83
2021/06/29 09:53:57;;;;;;;4.47;3.67;;;22.30;97.30;;;;;;6220827;23;20375;-84
2021/06/29 09:56:31;;;;;;;7.03;3.40;;;22.30;97.30;;;;;;6196126;23;20405;-83
2021/06/29 09:58:59;;;;;;;8.57;3.83;;;22.20;97.30;;;;;;6194079;23;20425;-83
2021/06/29 10:01:28;;;;;;;5.67;3.60;;;22.20;97.30;;;;;;6221383;23;20476;-83
2021/06/29 10:03:55;;;;;;;5.97;3.27;;;22.30;97.30;;;;;;6193637;23;20390;-84
2021/06/29 10:06:22;;;;;;;5.33;3.90;;;22.30;97.30;;;;;;6195647;23;20387;-83
2021/06/29 10:08:51;;;;;;;5.10;3.57;;;22.40;97.30;;;;;;6195538;23;20375;-84
2021/06/29 10:11:32;;;;;;;5.70;3.43;;;22.40;97.30;;;;;;6193564;23;20418;-83
2021/06/29 10:14:00;;;;;;;4.80;3.63;;;22.40;97.30;;;;;;6193454;23;20395;-83
2021/06/29 10:16:42;;;;;;;4.27;3.33;;;22.50;97.30;;;;;;6194412;23;20394;-83
2021/06/29 10:21:36;;;;;;;5.50;4.40;;;22.60;97.30;;;;;;6219501;23;21066;-82
2021/06/29 10:24:10;;;;;;;4.77;3.93;;;22.50;97.30;;;;;;6193069;23;20464;-83
2021/06/29 10:26:40;;;;;;;8.17;4.43;;;22.60;97.30;;;;;;6194124;23;20380;-84
2021/06/29 10:29:08;;;;;;;6.17;4.73;;;22.70;97.30;;;;;;6218776;23;20359;-84
2021/06/29 10:31:37;;;;;;;4.70;4.17;;;22.80;97.30;;;;;;6190892;23;20411;-84
2021/06/29 10:34:07;;;;;;;7.80;4.20;;;22.90;97.30;;;;;;6191618;23;20390;-84
2021/06/29 10:36:34;;;;;;;5.80;4.67;;;23.00;97.30;;;;;;6193737;23;20843;-83
2021/06/29 10:39:00;;;;;;;9.03;4.43;;;23.10;97.30;;;;;;6192501;23;20405;-83
2021/06/29 10:41:33;;;;;;;7.00;4.70;;;23.20;97.30;;;;;;6191151;23;20510;-84
2021/06/29 10:44:00;;;;;;;4.80;4.10;;;23.20;97.30;;;;;;6191863;23;20692;-84
2021/06/29 10:46:28;;;;;;;5.50;4.37;;;23.30;97.30;;;;;;6192742;23;20390;-83
2021/06/29 10:49:17;;;;;;;7.60;4.80;;;23.30;97.30;;;;;;6193445;23;20851;-83
2021/06/29 10:51:44;;;;;;;7.23;4.63;;;23.20;97.30;;;;;;6191257;23;20899;-84
2021/06/29 10:54:34;;;;;;;6.10;4.53;;;23.30;97.30;;;;;;6191714;23;20814;-84
2021/06/29 10:57:07;;;;;;;5.63;4.33;;;23.30;97.30;;;;;;6192133;23;20883;-82
2021/06/29 10:59:36;;;;;;;7.23;5.00;;;23.30;97.30;;;;;;6191752;23;20375;-83
2021/06/29 11:02:02;;;;;;;4.53;4.23;;;23.40;97.30;;;;;;6190440;23;20423;-84
2021/06/29 11:04:46;;;;;;;6.27;4.83;;;23.50;97.30;;;;;;6189274;23;20718;-84
2021/06/29 11:07:30;;;;;;;5.53;4.33;;;23.60;97.30;;;;;;6218057;23;20442;-82
2021/06/29 11:10:08;;;;;;;6.53;4.43;;;23.80;97.30;;;;;;6185701;23;20416;-84
2021/06/29 11:12:46;;;;;;;5.57;4.30;;;23.90;97.30;;;;;;6185447;23;20432;-84
2021/06/29 11:15:12;;;;;;;3.80;3.60;;;24.10;97.30;;;;;;6185044;23;20430;-84
2021/06/29 11:25:40;;;;;;;;;;;;;;;;;;;;;
2021/06/29 11:29:07;;;;;;;5.10;4.23;;;24.50;97.30;;;;;;6163146;23;20470;-90
2021/06/29 11:31:51;;;;;;;5.40;4.50;;;24.50;97.30;;;;;;6150149;23;20395;-89
2021/06/29 11:44:38;;;;;;;3.80;3.67;;;25.10;95.30;;;;;;5973626;24;20379;-88
2021/06/29 11:47:07;;;;;;;4.07;3.83;;;25.20;96.10;;;;;;6162088;23;20403;-89
2021/06/29 11:49:44;;;;;;;5.80;4.30;;;25.30;96.00;;;;;;6186865;23;20481;-88
2021/06/29 11:52:18;;;;;;;5.73;4.67;;;25.30;94.10;;;;;;6187138;23;20387;-88
2021/06/29 11:54:50;;;;;;;5.00;4.57;;;25.40;95.40;;;;;;6214822;23;20881;-89
2021/06/29 11:57:21;;;;;;;5.47;4.77;;;25.40;96.30;;;;;;6187024;23;20410;-88
2021/06/29 11:59:48;;;;;;;6.50;4.20;;;25.40;95.70;;;;;;6186768;23;20864;-89
2021/06/29 12:08:17;;;;;;;10.10;5.17;;;25.70;97.30;;;;;;6209074;23;20591;-83
2021/06/29 12:10:48;;;;;;;4.50;4.30;;;25.80;94.90;;;;;;6186810;23;20902;-84
2021/06/29 12:13:23;;;;;;;5.80;4.20;;;25.70;93.80;;;;;;6185745;23;20246;-84
2021/06/29 12:15:50;;;;;;;7.33;4.60;;;25.70;94.40;;;;;;6186813;23;20368;-84
2021/06/29 12:18:18;;;;;;;5.23;4.93;;;25.70;95.20;;;;;;6185812;23;20417;-84
2021/06/29 12:20:44;;;;;;;4.80;4.10;;;25.70;96.10;;;;;;6186110;23;20398;-84
2021/06/29 12:23:12;;;;;;;5.00;4.50;;;25.60;95.20;;;;;;6189911;23;20494;-84
2021/06/29 12:25:42;;;;;;;5.47;4.80;;;25.60;94.20;;;;;;6191500;23;20152;-86
2021/06/29 12:28:17;;;;;;;4.97;4.40;;;25.50;94.00;;;;;;6189000;23;20433;-85
2021/06/29 12:30:57;;;;;;;8.30;4.53;;;25.40;93.70;;;;;;6188049;23;20401;-85
2021/06/29 12:33:30;;;;;;;5.53;4.33;;;25.30;94.40;;;;;;6188858;23;20386;-84
2021/06/29 12:36:09;;;;;;;5.03;4.60;;;25.20;95.50;;;;;;6189039;23;20383;-84
2021/06/29 12:38:37;;;;;;;4.50;4.20;;;25.10;95.10;;;;;;6188212;23;20387;-85
2021/06/29 12:41:06;;;;;;;5.43;4.60;;;25.10;95.50;;;;;;6188526;23;20399;-85
2021/06/29 12:43:33;;;;;;;5.77;4.70;;;25.10;95.70;;;;;;6189299;23;20852;-85
2021/06/29 12:46:23;;;;;;;5.07;4.83;;;25.10;95.40;;;;;;6189321;23;20840;-86
2021/06/29 12:49:14;;;;;;;5.83;4.60;;;25.20;95.80;;;;;;6188694;23;20383;-84
2021/06/29 12:51:50;;;;;;;5.00;4.77;;;25.40;95.50;;;;;;6188696;23;20402;-85
2021/06/29 12:54:18;;;;;;;6.27;4.53;;;25.40;95.00;;;;;;6188915;23;20410;-84
2021/06/29 12:56:49;;;;;;;4.10;3.83;;;25.50;95.40;;;;;;6189989;23;20386;-86
2021/06/29 12:59:17;;;;;;;4.70;4.10;;;25.40;93.10;;;;;;6190244;23;20379;-86
2021/06/29 13:01:47;;;;;;;5.50;4.40;;;25.20;92.90;;;;;;6187689;23;20426;-85
2021/06/29 13:04:15;;;;;;;6.93;4.63;;;25.10;93.90;;;;;;6189239;23;20390;-85
2021/06/29 13:06:43;;;;;;;5.00;4.23;;;25.00;94.60;;;;;;6187393;23;20462;-85
2021/06/29 13:09:17;;;;;;;6.37;4.37;;;25.00;95.20;;;;;;6189101;23;20389;-85
2021/06/29 13:12:01;;;;;;;6.40;4.50;;;25.00;95.30;;;;;;6216209;23;20426;-85
2021/06/29 13:14:28;;;;;;;11.33;4.57;;;24.90;95.70;;;;;;6188810;23;21166;-85
2021/06/29 13:17:10;;;;;;;4.90;4.60;;;24.80;96.00;;;;;;6188913;23;20390;-85
2021/06/29 13:19:37;;;;;;;4.33;3.90;;;24.80;96.30;;;;;;6189375;23;20383;-85
2021/06/29 13:22:14;;;;;;;5.00;4.30;;;24.70;96.70;;;;;;6189340;23;20770;-85
2021/06/29 13:24:45;;;;;;;5.50;4.13;;;24.50;96.90;;;;;;6188607;23;20469;-85
2021/06/29 13:27:32;;;;;;;5.60;4.77;;;24.40;97.00;;;;;;6187808;23;20393;-85
2021/06/29 13:30:10;;;;;;;6.50;5.20;;;24.20;97.30;;;;;;6187509;23;20437;-85
2021/06/29 13:32:41;;;;;;;6.20;4.53;;;24.00;97.30;;;;;;6189367;23;20417;-85
2021/06/29 13:35:10;;;;;;;8.13;5.40;;;23.90;97.30;;;;;;6188390;23;20465;-85
2021/06/29 13:37:44;;;;;;;10.60;5.40;;;23.90;97.30;;;;;;6188386;23;20398;-85
2021/06/29 13:40:23;;;;;;;6.63;5.00;;;23.80;97.30;;;;;;6188523;23;20386;-85
2021/06/29 13:43:03;;;;;;;9.47;5.10;;;23.80;97.30;;;;;;6188808;23;20415;-85
2021/06/29 13:45:34;;;;;;;9.90;6.40;;;23.80;97.30;;;;;;6187526;23;20383;-84
2021/06/29 13:47:59;;;;;;;8.53;5.30;;;23.80;97.30;;;;;;6187896;23;20447;-85
2021/06/29 13:50:34;;;;;;;8.23;6.43;;;23.80;97.30;;;;;;6188780;23;20383;-84
2021/06/29 13:53:02;;;;;;;13.00;6.47;;;23.80;97.30;;;;;;6188512;23;20147;-84
2021/06/29 13:55:34;;;;;;;10.60;6.30;;;23.70;97.30;;;;;;6187463;23;20394;-84
2021/06/29 13:58:28;;;;;;;9.37;5.83;;;23.70;97.30;;;;;;6187277;23;20467;-84
2021/06/29 14:01:05;;;;;;;9.43;6.40;;;23.80;97.30;;;;;;6215560;23;20395;-84
2021/06/29 14:03:32;;;;;;;12.00;6.50;;;23.80;97.30;;;;;;6188780;23;20440;-84
2021/06/29 14:06:05;;;;;;;10.43;5.93;;;23.80;97.30;;;;;;6187781;23;20420;-84
2021/06/29 14:08:35;;;;;;;10.97;7.20;;;23.90;97.30;;;;;;6187667;23;20436;-84
2021/06/29 14:11:01;;;;;;;8.40;6.10;;;24.00;97.30;;;;;;6215453;23;20398;-84
2021/06/29 14:13:41;;;;;;;9.30;7.00;;;24.00;97.30;;;;;;6188520;23;20379;-84
2021/06/29 14:16:09;;;;;;;9.57;6.60;;;24.10;97.30;;;;;;6187936;23;20231;-84
2021/06/29 14:18:36;;;;;;;8.13;6.73;;;24.20;97.30;;;;;;6187744;23;20410;-84
2021/06/29 14:21:04;;;;;;;7.80;5.30;;;24.20;97.30;;;;;;6188449;23;20514;-84
2021/06/29 14:23:31;;;;;;;8.60;5.60;;;24.20;97.30;;;;;;6188934;23;20387;-84
2021/06/29 14:25:57;;;;;;;8.07;6.30;;;24.20;97.30;;;;;;6187779;23;20383;-84
2021/06/29 14:28:23;;;;;;;10.80;6.37;;;24.20;97.30;;;;;;6187372;23;20441;-84
2021/06/29 14:30:49;;;;;;;9.53;6.83;;;24.20;97.30;;;;;;6215180;23;20387;-85
2021/06/29 14:33:15;;;;;;;7.43;5.47;;;24.10;97.30;;;;;;6188782;23;20845;-85
2021/06/29 14:35:40;;;;;;;8.77;6.20;;;24.10;97.30;;;;;;6187965;23;20488;-85
2021/06/29 14:38:10;;;;;;;7.87;5.83;;;24.20;97.30;;;;;;6213708;23;20156;-85
2021/06/29 14:40:35;;;;;;;9.93;6.73;;;24.20;97.30;;;;;;6187849;23;20191;-85
2021/06/29 14:43:01;;;;;;;8.20;6.80;;;24.20;97.30;;;;;;6189031;23;20414;-85
2021/06/29 14:45:27;;;;;;;7.77;6.83;;;24.20;97.30;;;;;;6187487;23;20152;-85
2021/06/29 14:47:52;;;;;;;7.93;5.93;;;24.20;97.30;;;;;;6186758;23;20171;-84
2021/06/29 14:50:20;;;;;;;7.60;5.73;;;24.20;97.30;;;;;;6187449;23;20155;-85